sensor_id;sensor_type;location;lat;lon;timestamp;P1;durP1;ratioP1;P2;durP2;ratioP2
49910;SDS011;35803;53.096;5.844;2023-05-21T00:02:36;5.43;;;3.25;;
49910;SDS011;35803;53.096;5.844;2023-05-21T00:05:21;4.57;;;3.08;;
49910;SDS011;35803;53.096;5.844;2023-05-21T00:08:06;4.20;;;3.00;;
49910;SDS011;35803;53.096;5.844;2023-05-21T00:10:51;3.83;;;3.00;;
49910;SDS011;35803;53.096;5.844;2023-05-21T00:13:35;5.05;;;3.40;;
49910;SDS011;35803;53.096;5.844;2023-05-21T00:16:20;5.05;;;2.60;;
49910;SDS011;35803;53.096;5.844;2023-05-21T00:19:04;5.18;;;3.15;;
49910;SDS011;35803;53.096;5.844;2023-05-21T00:21:48;4.22;;;2.90;;
49910;SDS011;35803;53.096;5.844;2023-05-21T00:24:33;4.63;;;3.55;;
49910;SDS011;35803;53.096;5.844;2023-05-21T00:27:17;5.10;;;3.30;;
49910;SDS011;35803;53.096;5.844;2023-05-21T00:30:01;3.60;;;2.88;;
49910;SDS011;35803;53.096;5.844;2023-05-21T00:32:46;4.70;;;3.35;;
49910;SDS011;35803;53.096;5.844;2023-05-21T00:35:30;3.45;;;2.78;;
49910;SDS011;35803;53.096;5.844;2023-05-21T00:38:14;6.13;;;3.13;;
49910;SDS011;35803;53.096;5.844;2023-05-21T00:41:01;4.68;;;3.05;;
49910;SDS011;35803;53.096;5.844;2023-05-21T00:43:45;4.78;;;2.83;;
49910;SDS011;35803;53.096;5.844;2023-05-21T00:46:29;3.90;;;2.53;;
49910;SDS011;35803;53.096;5.844;2023-05-21T00:49:15;5.22;;;2.92;;
49910;SDS011;35803;53.096;5.844;2023-05-21T00:52:00;3.45;;;2.88;;
49910;SDS011;35803;53.096;5.844;2023-05-21T00:54:48;3.63;;;2.80;;
49910;SDS011;35803;53.096;5.844;2023-05-21T00:57:32;4.47;;;3.25;;
49910;SDS011;35803;53.096;5.844;2023-05-21T01:00:16;5.18;;;2.70;;
49910;SDS011;35803;53.096;5.844;2023-05-21T01:03:00;5.18;;;3.10;;
49910;SDS011;35803;53.096;5.844;2023-05-21T01:05:44;4.07;;;3.03;;
49910;SDS011;35803;53.096;5.844;2023-05-21T01:08:29;4.35;;;3.30;;
49910;SDS011;35803;53.096;5.844;2023-05-21T01:11:13;4.53;;;3.28;;
49910;SDS011;35803;53.096;5.844;2023-05-21T01:13:57;6.80;;;3.42;;
49910;SDS011;35803;53.096;5.844;2023-05-21T01:16:42;3.80;;;3.22;;
49910;SDS011;35803;53.096;5.844;2023-05-21T01:19:29;5.28;;;3.45;;
49910;SDS011;35803;53.096;5.844;2023-05-21T01:22:15;5.05;;;3.67;;
49910;SDS011;35803;53.096;5.844;2023-05-21T01:25:02;5.05;;;3.40;;
49910;SDS011;35803;53.096;5.844;2023-05-21T01:27:46;4.00;;;3.20;;
49910;SDS011;35803;53.096;5.844;2023-05-21T01:30:30;6.82;;;3.60;;
49910;SDS011;35803;53.096;5.844;2023-05-21T01:33:22;6.88;;;3.78;;
49910;SDS011;35803;53.096;5.844;2023-05-21T01:36:22;6.40;;;3.67;;
49910;SDS011;35803;53.096;5.844;2023-05-21T01:39:13;5.25;;;3.50;;
49910;SDS011;35803;53.096;5.844;2023-05-21T01:42:01;6.40;;;3.50;;
49910;SDS011;35803;53.096;5.844;2023-05-21T01:44:46;4.88;;;3.40;;
49910;SDS011;35803;53.096;5.844;2023-05-21T01:47:32;4.78;;;3.78;;
49910;SDS011;35803;53.096;5.844;2023-05-21T01:50:21;5.35;;;3.33;;
49910;SDS011;35803;53.096;5.844;2023-05-21T01:53:06;4.90;;;3.30;;
49910;SDS011;35803;53.096;5.844;2023-05-21T01:55:50;4.32;;;3.47;;
49910;SDS011;35803;53.096;5.844;2023-05-21T01:58:34;6.68;;;3.67;;
49910;SDS011;35803;53.096;5.844;2023-05-21T02:01:18;5.05;;;3.25;;
49910;SDS011;35803;53.096;5.844;2023-05-21T02:04:03;4.15;;;3.00;;
49910;SDS011;35803;53.096;5.844;2023-05-21T02:06:50;5.00;;;3.30;;
49910;SDS011;35803;53.096;5.844;2023-05-21T02:09:34;4.90;;;3.50;;
49910;SDS011;35803;53.096;5.844;2023-05-21T02:12:18;4.93;;;3.45;;
49910;SDS011;35803;53.096;5.844;2023-05-21T02:15:03;5.03;;;3.60;;
49910;SDS011;35803;53.096;5.844;2023-05-21T02:17:51;8.77;;;3.80;;
49910;SDS011;35803;53.096;5.844;2023-05-21T02:20:36;5.07;;;3.38;;
49910;SDS011;35803;53.096;5.844;2023-05-21T02:23:22;6.18;;;3.83;;
49910;SDS011;35803;53.096;5.844;2023-05-21T02:26:06;5.03;;;3.80;;
49910;SDS011;35803;53.096;5.844;2023-05-21T02:28:53;4.45;;;3.03;;
49910;SDS011;35803;53.096;5.844;2023-05-21T02:31:38;6.13;;;4.00;;
49910;SDS011;35803;53.096;5.844;2023-05-21T02:34:22;4.38;;;3.35;;
49910;SDS011;35803;53.096;5.844;2023-05-21T02:37:07;5.88;;;3.83;;
49910;SDS011;35803;53.096;5.844;2023-05-21T02:39:53;5.00;;;3.75;;
49910;SDS011;35803;53.096;5.844;2023-05-21T02:42:38;4.68;;;3.20;;
49910;SDS011;35803;53.096;5.844;2023-05-21T02:45:23;4.50;;;3.70;;
49910;SDS011;35803;53.096;5.844;2023-05-21T02:48:07;7.03;;;4.03;;
49910;SDS011;35803;53.096;5.844;2023-05-21T02:50:54;5.80;;;3.90;;
49910;SDS011;35803;53.096;5.844;2023-05-21T02:53:38;7.97;;;3.47;;
49910;SDS011;35803;53.096;5.844;2023-05-21T02:56:22;4.78;;;3.40;;
49910;SDS011;35803;53.096;5.844;2023-05-21T02:59:07;6.05;;;4.05;;
49910;SDS011;35803;53.096;5.844;2023-05-21T03:01:51;4.95;;;4.03;;
49910;SDS011;35803;53.096;5.844;2023-05-21T03:04:35;7.80;;;4.32;;
49910;SDS011;35803;53.096;5.844;2023-05-21T03:07:28;6.53;;;4.43;;
49910;SDS011;35803;53.096;5.844;2023-05-21T03:10:12;5.80;;;3.95;;
49910;SDS011;35803;53.096;5.844;2023-05-21T03:12:59;5.80;;;3.92;;
49910;SDS011;35803;53.096;5.844;2023-05-21T03:15:44;7.07;;;4.18;;
49910;SDS011;35803;53.096;5.844;2023-05-21T03:18:29;7.85;;;4.05;;
49910;SDS011;35803;53.096;5.844;2023-05-21T03:21:13;7.22;;;4.30;;
49910;SDS011;35803;53.096;5.844;2023-05-21T03:24:00;8.25;;;4.40;;
49910;SDS011;35803;53.096;5.844;2023-05-21T03:26:45;8.18;;;4.70;;
49910;SDS011;35803;53.096;5.844;2023-05-21T03:29:31;7.43;;;3.95;;
49910;SDS011;35803;53.096;5.844;2023-05-21T03:32:15;8.43;;;4.40;;
49910;SDS011;35803;53.096;5.844;2023-05-21T03:34:59;7.47;;;4.35;;
49910;SDS011;35803;53.096;5.844;2023-05-21T03:37:46;7.30;;;4.35;;
49910;SDS011;35803;53.096;5.844;2023-05-21T03:40:30;7.78;;;4.35;;
49910;SDS011;35803;53.096;5.844;2023-05-21T03:43:14;8.30;;;4.82;;
49910;SDS011;35803;53.096;5.844;2023-05-21T03:45:59;9.32;;;4.85;;
49910;SDS011;35803;53.096;5.844;2023-05-21T03:48:43;8.35;;;4.60;;
49910;SDS011;35803;53.096;5.844;2023-05-21T03:51:27;8.23;;;4.55;;
49910;SDS011;35803;53.096;5.844;2023-05-21T03:54:13;7.40;;;4.55;;
49910;SDS011;35803;53.096;5.844;2023-05-21T03:56:57;9.60;;;4.70;;
49910;SDS011;35803;53.096;5.844;2023-05-21T03:59:41;9.25;;;4.55;;
49910;SDS011;35803;53.096;5.844;2023-05-21T04:02:29;8.63;;;4.65;;
49910;SDS011;35803;53.096;5.844;2023-05-21T04:05:13;9.02;;;4.32;;
49910;SDS011;35803;53.096;5.844;2023-05-21T04:07:57;7.40;;;4.35;;
49910;SDS011;35803;53.096;5.844;2023-05-21T04:10:41;10.20;;;4.63;;
49910;SDS011;35803;53.096;5.844;2023-05-21T04:13:25;8.50;;;4.40;;
49910;SDS011;35803;53.096;5.844;2023-05-21T04:16:10;7.75;;;4.60;;
49910;SDS011;35803;53.096;5.844;2023-05-21T04:18:57;7.82;;;4.60;;
49910;SDS011;35803;53.096;5.844;2023-05-21T04:21:41;10.40;;;4.82;;
49910;SDS011;35803;53.096;5.844;2023-05-21T04:24:27;6.60;;;4.65;;
49910;SDS011;35803;53.096;5.844;2023-05-21T04:27:11;9.32;;;4.47;;
49910;SDS011;35803;53.096;5.844;2023-05-21T04:29:56;7.68;;;4.57;;
49910;SDS011;35803;53.096;5.844;2023-05-21T04:32:40;8.35;;;4.35;;
49910;SDS011;35803;53.096;5.844;2023-05-21T04:35:28;10.02;;;4.82;;
49910;SDS011;35803;53.096;5.844;2023-05-21T04:38:12;8.07;;;4.50;;
49910;SDS011;35803;53.096;5.844;2023-05-21T04:40:56;5.88;;;4.00;;
49910;SDS011;35803;53.096;5.844;2023-05-21T04:43:41;11.30;;;4.53;;
49910;SDS011;35803;53.096;5.844;2023-05-21T04:46:26;8.45;;;4.30;;
49910;SDS011;35803;53.096;5.844;2023-05-21T04:49:10;8.82;;;4.35;;
49910;SDS011;35803;53.096;5.844;2023-05-21T04:51:58;11.57;;;5.03;;
49910;SDS011;35803;53.096;5.844;2023-05-21T04:54:42;6.18;;;4.00;;
49910;SDS011;35803;53.096;5.844;2023-05-21T04:57:28;8.43;;;4.32;;
49910;SDS011;35803;53.096;5.844;2023-05-21T05:00:12;6.65;;;3.80;;
49910;SDS011;35803;53.096;5.844;2023-05-21T05:02:56;7.38;;;3.90;;
49910;SDS011;35803;53.096;5.844;2023-05-21T05:05:41;9.60;;;4.20;;
49910;SDS011;35803;53.096;5.844;2023-05-21T05:08:25;6.32;;;3.88;;
49910;SDS011;35803;53.096;5.844;2023-05-21T05:11:12;8.52;;;3.90;;
49910;SDS011;35803;53.096;5.844;2023-05-21T05:13:56;8.90;;;3.67;;
49910;SDS011;35803;53.096;5.844;2023-05-21T05:16:40;7.78;;;4.03;;
49910;SDS011;35803;53.096;5.844;2023-05-21T05:19:25;8.57;;;4.30;;
49910;SDS011;35803;53.096;5.844;2023-05-21T05:22:09;5.20;;;3.70;;
49910;SDS011;35803;53.096;5.844;2023-05-21T05:24:54;6.90;;;3.85;;
49910;SDS011;35803;53.096;5.844;2023-05-21T05:27:38;6.68;;;3.70;;
49910;SDS011;35803;53.096;5.844;2023-05-21T05:30:22;4.53;;;3.03;;
49910;SDS011;35803;53.096;5.844;2023-05-21T05:33:06;6.07;;;3.55;;
49910;SDS011;35803;53.096;5.844;2023-05-21T05:35:50;6.57;;;3.53;;
49910;SDS011;35803;53.096;5.844;2023-05-21T05:38:34;6.22;;;3.80;;
49910;SDS011;35803;53.096;5.844;2023-05-21T05:41:18;6.65;;;3.58;;
49910;SDS011;35803;53.096;5.844;2023-05-21T05:44:02;6.72;;;3.13;;
49910;SDS011;35803;53.096;5.844;2023-05-21T05:46:47;5.03;;;3.40;;
49910;SDS011;35803;53.096;5.844;2023-05-21T05:49:31;6.78;;;3.20;;
49910;SDS011;35803;53.096;5.844;2023-05-21T05:52:15;6.43;;;3.72;;
49910;SDS011;35803;53.096;5.844;2023-05-21T05:54:59;9.48;;;3.50;;
49910;SDS011;35803;53.096;5.844;2023-05-21T05:57:43;5.90;;;3.47;;
49910;SDS011;35803;53.096;5.844;2023-05-21T06:00:27;7.45;;;3.63;;
49910;SDS011;35803;53.096;5.844;2023-05-21T06:03:13;5.05;;;2.90;;
49910;SDS011;35803;53.096;5.844;2023-05-21T06:05:57;5.97;;;2.83;;
49910;SDS011;35803;53.096;5.844;2023-05-21T06:08:41;6.18;;;3.08;;
49910;SDS011;35803;53.096;5.844;2023-05-21T06:11:26;6.95;;;3.38;;
49910;SDS011;35803;53.096;5.844;2023-05-21T06:14:10;7.15;;;2.70;;
49910;SDS011;35803;53.096;5.844;2023-05-21T06:16:53;7.65;;;3.45;;
49910;SDS011;35803;53.096;5.844;2023-05-21T06:19:40;5.50;;;3.08;;
49910;SDS011;35803;53.096;5.844;2023-05-21T06:22:24;5.90;;;2.95;;
49910;SDS011;35803;53.096;5.844;2023-05-21T06:25:08;5.63;;;2.85;;
49910;SDS011;35803;53.096;5.844;2023-05-21T06:27:53;7.75;;;3.08;;
49910;SDS011;35803;53.096;5.844;2023-05-21T06:30:39;6.22;;;3.05;;
49910;SDS011;35803;53.096;5.844;2023-05-21T06:33:24;6.68;;;3.20;;
49910;SDS011;35803;53.096;5.844;2023-05-21T06:36:09;5.82;;;3.15;;
49910;SDS011;35803;53.096;5.844;2023-05-21T06:38:59;5.60;;;3.30;;
49910;SDS011;35803;53.096;5.844;2023-05-21T06:41:44;7.32;;;3.08;;
49910;SDS011;35803;53.096;5.844;2023-05-21T06:44:30;5.15;;;3.17;;
49910;SDS011;35803;53.096;5.844;2023-05-21T06:47:14;5.90;;;2.53;;
49910;SDS011;35803;53.096;5.844;2023-05-21T06:49:58;7.72;;;3.47;;
49910;SDS011;35803;53.096;5.844;2023-05-21T06:52:42;4.95;;;2.90;;
49910;SDS011;35803;53.096;5.844;2023-05-21T06:55:26;4.90;;;2.72;;
49910;SDS011;35803;53.096;5.844;2023-05-21T06:58:11;5.63;;;3.22;;
49910;SDS011;35803;53.096;5.844;2023-05-21T07:00:55;3.75;;;2.83;;
49910;SDS011;35803;53.096;5.844;2023-05-21T07:03:40;5.85;;;2.85;;
49910;SDS011;35803;53.096;5.844;2023-05-21T07:06:24;6.63;;;2.88;;
49910;SDS011;35803;53.096;5.844;2023-05-21T07:09:11;3.80;;;2.92;;
49910;SDS011;35803;53.096;5.844;2023-05-21T07:11:55;9.45;;;2.92;;
49910;SDS011;35803;53.096;5.844;2023-05-21T07:14:39;5.45;;;2.97;;
49910;SDS011;35803;53.096;5.844;2023-05-21T07:17:23;4.68;;;2.67;;
49910;SDS011;35803;53.096;5.844;2023-05-21T07:20:07;5.22;;;2.80;;
49910;SDS011;35803;53.096;5.844;2023-05-21T07:22:52;6.95;;;3.53;;
49910;SDS011;35803;53.096;5.844;2023-05-21T07:26:10;7.35;;;3.60;;
49910;SDS011;35803;53.096;5.844;2023-05-21T07:28:56;5.65;;;3.13;;
49910;SDS011;35803;53.096;5.844;2023-05-21T07:31:40;6.78;;;3.25;;
49910;SDS011;35803;53.096;5.844;2023-05-21T07:34:24;7.72;;;3.40;;
49910;SDS011;35803;53.096;5.844;2023-05-21T07:37:09;6.68;;;3.50;;
49910;SDS011;35803;53.096;5.844;2023-05-21T07:39:54;7.00;;;2.97;;
49910;SDS011;35803;53.096;5.844;2023-05-21T07:42:40;4.75;;;2.97;;
49910;SDS011;35803;53.096;5.844;2023-05-21T07:45:24;4.25;;;2.83;;
49910;SDS011;35803;53.096;5.844;2023-05-21T07:48:08;6.28;;;3.08;;
49910;SDS011;35803;53.096;5.844;2023-05-21T07:50:52;5.95;;;3.30;;
49910;SDS011;35803;53.096;5.844;2023-05-21T07:53:37;6.38;;;3.55;;
49910;SDS011;35803;53.096;5.844;2023-05-21T07:56:21;5.70;;;3.10;;
49910;SDS011;35803;53.096;5.844;2023-05-21T07:59:05;5.05;;;3.30;;
49910;SDS011;35803;53.096;5.844;2023-05-21T08:01:50;5.07;;;2.85;;
49910;SDS011;35803;53.096;5.844;2023-05-21T08:04:34;6.00;;;3.17;;
49910;SDS011;35803;53.096;5.844;2023-05-21T08:07:18;4.63;;;3.50;;
49910;SDS011;35803;53.096;5.844;2023-05-21T08:10:04;5.25;;;3.35;;
49910;SDS011;35803;53.096;5.844;2023-05-21T08:12:49;6.05;;;3.00;;
49910;SDS011;35803;53.096;5.844;2023-05-21T08:15:33;5.93;;;2.85;;
49910;SDS011;35803;53.096;5.844;2023-05-21T08:18:17;4.25;;;3.00;;
49910;SDS011;35803;53.096;5.844;2023-05-21T08:21:02;5.63;;;3.75;;
49910;SDS011;35803;53.096;5.844;2023-05-21T08:23:46;5.18;;;3.33;;
49910;SDS011;35803;53.096;5.844;2023-05-21T08:26:31;5.70;;;3.08;;
49910;SDS011;35803;53.096;5.844;2023-05-21T08:29:15;4.72;;;2.85;;
49910;SDS011;35803;53.096;5.844;2023-05-21T08:31:59;6.85;;;3.70;;
49910;SDS011;35803;53.096;5.844;2023-05-21T08:34:43;5.72;;;3.08;;
49910;SDS011;35803;53.096;5.844;2023-05-21T08:37:27;6.03;;;3.00;;
49910;SDS011;35803;53.096;5.844;2023-05-21T08:40:12;6.30;;;2.97;;
49910;SDS011;35803;53.096;5.844;2023-05-21T08:42:59;3.85;;;2.67;;
49910;SDS011;35803;53.096;5.844;2023-05-21T08:45:44;5.05;;;3.00;;
49910;SDS011;35803;53.096;5.844;2023-05-21T08:48:36;6.05;;;2.80;;
49910;SDS011;35803;53.096;5.844;2023-05-21T08:51:21;7.68;;;3.08;;
49910;SDS011;35803;53.096;5.844;2023-05-21T08:54:08;7.28;;;3.05;;
49910;SDS011;35803;53.096;5.844;2023-05-21T08:56:52;4.95;;;2.83;;
49910;SDS011;35803;53.096;5.844;2023-05-21T08:59:36;5.05;;;2.58;;
49910;SDS011;35803;53.096;5.844;2023-05-21T09:02:26;3.95;;;2.65;;
49910;SDS011;35803;53.096;5.844;2023-05-21T09:05:11;4.85;;;3.00;;
49910;SDS011;35803;53.096;5.844;2023-05-21T09:07:58;4.00;;;2.75;;
49910;SDS011;35803;53.096;5.844;2023-05-21T09:10:50;4.28;;;2.53;;
49910;SDS011;35803;53.096;5.844;2023-05-21T09:13:34;7.65;;;3.22;;
49910;SDS011;35803;53.096;5.844;2023-05-21T09:16:19;7.05;;;3.20;;
49910;SDS011;35803;53.096;5.844;2023-05-21T09:19:03;4.38;;;2.70;;
49910;SDS011;35803;53.096;5.844;2023-05-21T09:21:53;4.40;;;2.85;;
49910;SDS011;35803;53.096;5.844;2023-05-21T09:24:37;4.32;;;2.75;;
49910;SDS011;35803;53.096;5.844;2023-05-21T09:27:26;4.32;;;3.03;;
49910;SDS011;35803;53.096;5.844;2023-05-21T09:30:14;3.63;;;2.80;;
49910;SDS011;35803;53.096;5.844;2023-05-21T09:33:00;4.70;;;2.85;;
49910;SDS011;35803;53.096;5.844;2023-05-21T09:35:45;7.85;;;2.97;;
49910;SDS011;35803;53.096;5.844;2023-05-21T09:38:32;3.85;;;2.85;;
49910;SDS011;35803;53.096;5.844;2023-05-21T09:41:17;4.20;;;2.92;;
49910;SDS011;35803;53.096;5.844;2023-05-21T09:44:01;5.97;;;2.58;;
49910;SDS011;35803;53.096;5.844;2023-05-21T09:46:46;4.85;;;2.22;;
49910;SDS011;35803;53.096;5.844;2023-05-21T09:49:30;4.93;;;2.90;;
49910;SDS011;35803;53.096;5.844;2023-05-21T09:52:21;6.03;;;2.80;;
49910;SDS011;35803;53.096;5.844;2023-05-21T09:55:08;6.63;;;3.10;;
49910;SDS011;35803;53.096;5.844;2023-05-21T09:57:54;4.28;;;2.90;;
49910;SDS011;35803;53.096;5.844;2023-05-21T10:00:40;5.82;;;3.08;;
49910;SDS011;35803;53.096;5.844;2023-05-21T10:03:26;5.10;;;2.90;;
49910;SDS011;35803;53.096;5.844;2023-05-21T10:06:11;4.13;;;3.08;;
49910;SDS011;35803;53.096;5.844;2023-05-21T10:08:58;6.25;;;3.20;;
49910;SDS011;35803;53.096;5.844;2023-05-21T10:11:45;4.47;;;2.90;;
49910;SDS011;35803;53.096;5.844;2023-05-21T10:14:30;5.00;;;2.92;;
49910;SDS011;35803;53.096;5.844;2023-05-21T10:17:16;6.57;;;3.38;;
49910;SDS011;35803;53.096;5.844;2023-05-21T10:20:01;5.25;;;2.92;;
49910;SDS011;35803;53.096;5.844;2023-05-21T10:22:47;4.80;;;2.80;;
49910;SDS011;35803;53.096;5.844;2023-05-21T10:25:33;4.18;;;3.00;;
49910;SDS011;35803;53.096;5.844;2023-05-21T10:28:17;4.68;;;2.53;;
49910;SDS011;35803;53.096;5.844;2023-05-21T10:31:03;6.53;;;2.70;;
49910;SDS011;35803;53.096;5.844;2023-05-21T10:33:47;3.60;;;3.00;;
49910;SDS011;35803;53.096;5.844;2023-05-21T10:36:32;3.95;;;2.72;;
49910;SDS011;35803;53.096;5.844;2023-05-21T10:39:25;7.82;;;2.63;;
49910;SDS011;35803;53.096;5.844;2023-05-21T10:42:19;5.78;;;2.40;;
49910;SDS011;35803;53.096;5.844;2023-05-21T10:45:15;4.53;;;2.60;;
49910;SDS011;35803;53.096;5.844;2023-05-21T10:57:12;4.45;;;2.78;;
49910;SDS011;35803;53.096;5.844;2023-05-21T11:00:08;4.22;;;2.92;;
49910;SDS011;35803;53.096;5.844;2023-05-21T11:02:54;3.70;;;2.67;;
49910;SDS011;35803;53.096;5.844;2023-05-21T11:05:39;5.78;;;2.78;;
49910;SDS011;35803;53.096;5.844;2023-05-21T11:08:25;3.88;;;3.05;;
49910;SDS011;35803;53.096;5.844;2023-05-21T11:11:10;4.45;;;2.85;;
49910;SDS011;35803;53.096;5.844;2023-05-21T11:17:37;6.30;;;2.70;;
49910;SDS011;35803;53.096;5.844;2023-05-21T11:20:22;7.32;;;3.30;;
49910;SDS011;35803;53.096;5.844;2023-05-21T11:23:17;6.47;;;2.95;;
49910;SDS011;35803;53.096;5.844;2023-05-21T11:26:04;4.07;;;2.92;;
49910;SDS011;35803;53.096;5.844;2023-05-21T11:28:49;4.28;;;2.83;;
49910;SDS011;35803;53.096;5.844;2023-05-21T11:31:58;4.82;;;2.65;;
49910;SDS011;35803;53.096;5.844;2023-05-21T11:34:48;4.22;;;2.78;;
49910;SDS011;35803;53.096;5.844;2023-05-21T11:37:33;6.00;;;3.28;;
49910;SDS011;35803;53.096;5.844;2023-05-21T11:40:24;4.47;;;2.85;;
49910;SDS011;35803;53.096;5.844;2023-05-21T11:43:09;6.88;;;2.75;;
49910;SDS011;35803;53.096;5.844;2023-05-21T11:45:53;5.15;;;3.20;;
49910;SDS011;35803;53.096;5.844;2023-05-21T11:48:38;4.97;;;3.10;;
49910;SDS011;35803;53.096;5.844;2023-05-21T11:51:22;6.15;;;3.35;;
49910;SDS011;35803;53.096;5.844;2023-05-21T11:54:07;6.10;;;3.42;;
49910;SDS011;35803;53.096;5.844;2023-05-21T11:56:55;5.63;;;3.17;;
49910;SDS011;35803;53.096;5.844;2023-05-21T11:59:39;4.97;;;3.05;;
49910;SDS011;35803;53.096;5.844;2023-05-21T12:02:25;5.55;;;3.30;;
49910;SDS011;35803;53.096;5.844;2023-05-21T12:05:11;5.00;;;2.97;;
49910;SDS011;35803;53.096;5.844;2023-05-21T12:07:55;6.03;;;3.50;;
49910;SDS011;35803;53.096;5.844;2023-05-21T12:10:42;3.33;;;2.78;;
49910;SDS011;35803;53.096;5.844;2023-05-21T12:13:26;4.10;;;3.00;;
49910;SDS011;35803;53.096;5.844;2023-05-21T12:16:11;4.20;;;3.20;;
49910;SDS011;35803;53.096;5.844;2023-05-21T12:18:55;5.10;;;3.40;;
49910;SDS011;35803;53.096;5.844;2023-05-21T12:21:42;7.15;;;3.17;;
49910;SDS011;35803;53.096;5.844;2023-05-21T12:24:26;7.28;;;3.55;;
49910;SDS011;35803;53.096;5.844;2023-05-21T12:27:10;4.60;;;2.95;;
49910;SDS011;35803;53.096;5.844;2023-05-21T12:29:56;4.78;;;3.08;;
49910;SDS011;35803;53.096;5.844;2023-05-21T12:32:41;6.60;;;3.10;;
49910;SDS011;35803;53.096;5.844;2023-05-21T12:35:26;4.47;;;3.10;;
49910;SDS011;35803;53.096;5.844;2023-05-21T12:38:10;5.70;;;3.65;;
49910;SDS011;35803;53.096;5.844;2023-05-21T12:40:54;6.10;;;3.80;;
49910;SDS011;35803;53.096;5.844;2023-05-21T12:43:39;4.78;;;3.30;;
49910;SDS011;35803;53.096;5.844;2023-05-21T12:46:24;4.72;;;3.15;;
49910;SDS011;35803;53.096;5.844;2023-05-21T12:49:29;4.75;;;3.00;;
49910;SDS011;35803;53.096;5.844;2023-05-21T12:52:14;5.82;;;3.28;;
49910;SDS011;35803;53.096;5.844;2023-05-21T12:55:00;5.07;;;3.10;;
49910;SDS011;35803;53.096;5.844;2023-05-21T12:57:44;3.60;;;3.10;;
49910;SDS011;35803;53.096;5.844;2023-05-21T13:00:29;4.80;;;3.47;;
49910;SDS011;35803;53.096;5.844;2023-05-21T13:03:17;5.68;;;3.53;;
49910;SDS011;35803;53.096;5.844;2023-05-21T13:06:04;4.63;;;2.90;;
49910;SDS011;35803;53.096;5.844;2023-05-21T13:08:49;5.95;;;3.13;;
49910;SDS011;35803;53.096;5.844;2023-05-21T13:11:33;7.20;;;3.58;;
49910;SDS011;35803;53.096;5.844;2023-05-21T13:14:17;4.72;;;3.00;;
49910;SDS011;35803;53.096;5.844;2023-05-21T13:17:04;6.32;;;3.22;;
49910;SDS011;35803;53.096;5.844;2023-05-21T13:22:58;8.32;;;3.80;;
49910;SDS011;35803;53.096;5.844;2023-05-21T13:25:42;7.22;;;4.43;;
49910;SDS011;35803;53.096;5.844;2023-05-21T13:28:26;7.47;;;4.47;;
49910;SDS011;35803;53.096;5.844;2023-05-21T13:31:11;5.13;;;4.07;;
49910;SDS011;35803;53.096;5.844;2023-05-21T13:33:58;9.30;;;5.03;;
49910;SDS011;35803;53.096;5.844;2023-05-21T13:36:42;6.35;;;4.88;;
49910;SDS011;35803;53.096;5.844;2023-05-21T13:39:33;8.13;;;4.57;;
49910;SDS011;35803;53.096;5.844;2023-05-21T13:42:17;7.95;;;5.07;;
49910;SDS011;35803;53.096;5.844;2023-05-21T13:45:02;9.70;;;5.20;;
49910;SDS011;35803;53.096;5.844;2023-05-21T13:47:47;8.70;;;5.03;;
49910;SDS011;35803;53.096;5.844;2023-05-21T13:50:31;9.50;;;5.95;;
49910;SDS011;35803;53.096;5.844;2023-05-21T13:53:16;8.38;;;6.18;;
49910;SDS011;35803;53.096;5.844;2023-05-21T13:56:00;7.90;;;6.13;;
49910;SDS011;35803;53.096;5.844;2023-05-21T13:58:44;7.68;;;5.95;;
49910;SDS011;35803;53.096;5.844;2023-05-21T14:01:28;8.85;;;6.22;;
49910;SDS011;35803;53.096;5.844;2023-05-21T14:04:13;8.68;;;5.85;;
49910;SDS011;35803;53.096;5.844;2023-05-21T14:06:56;9.50;;;6.28;;
49910;SDS011;35803;53.096;5.844;2023-05-21T14:09:40;8.90;;;6.38;;
49910;SDS011;35803;53.096;5.844;2023-05-21T14:12:25;9.80;;;6.28;;
49910;SDS011;35803;53.096;5.844;2023-05-21T14:15:09;9.50;;;7.00;;
49910;SDS011;35803;53.096;5.844;2023-05-21T14:17:54;13.45;;;7.18;;
49910;SDS011;35803;53.096;5.844;2023-05-21T14:20:38;10.35;;;6.90;;
49910;SDS011;35803;53.096;5.844;2023-05-21T14:23:22;12.13;;;7.07;;
49910;SDS011;35803;53.096;5.844;2023-05-21T14:26:07;12.95;;;7.90;;
49910;SDS011;35803;53.096;5.844;2023-05-21T14:28:51;13.18;;;7.88;;
49910;SDS011;35803;53.096;5.844;2023-05-21T14:31:35;14.00;;;9.13;;
49910;SDS011;35803;53.096;5.844;2023-05-21T14:34:20;14.57;;;8.80;;
49910;SDS011;35803;53.096;5.844;2023-05-21T14:37:04;15.68;;;9.07;;
49910;SDS011;35803;53.096;5.844;2023-05-21T14:39:48;14.68;;;9.20;;
49910;SDS011;35803;53.096;5.844;2023-05-21T14:42:34;13.90;;;8.75;;
49910;SDS011;35803;53.096;5.844;2023-05-21T14:45:18;13.75;;;9.15;;
49910;SDS011;35803;53.096;5.844;2023-05-21T14:48:02;12.50;;;8.18;;
49910;SDS011;35803;53.096;5.844;2023-05-21T14:50:54;16.38;;;9.30;;
49910;SDS011;35803;53.096;5.844;2023-05-21T14:53:38;12.77;;;8.43;;
49910;SDS011;35803;53.096;5.844;2023-05-21T14:56:23;12.63;;;8.00;;
49910;SDS011;35803;53.096;5.844;2023-05-21T15:02:03;12.65;;;8.40;;
49910;SDS011;35803;53.096;5.844;2023-05-21T15:04:48;13.45;;;7.82;;
49910;SDS011;35803;53.096;5.844;2023-05-21T15:07:31;13.75;;;7.80;;
49910;SDS011;35803;53.096;5.844;2023-05-21T15:10:15;12.63;;;8.18;;
49910;SDS011;35803;53.096;5.844;2023-05-21T15:13:00;11.38;;;8.25;;
49910;SDS011;35803;53.096;5.844;2023-05-21T15:15:44;11.73;;;7.40;;
49910;SDS011;35803;53.096;5.844;2023-05-21T15:18:29;12.43;;;6.88;;
49910;SDS011;35803;53.096;5.844;2023-05-21T15:21:13;11.80;;;7.80;;
49910;SDS011;35803;53.096;5.844;2023-05-21T15:23:57;11.70;;;7.88;;
49910;SDS011;35803;53.096;5.844;2023-05-21T15:26:41;12.13;;;7.55;;
49910;SDS011;35803;53.096;5.844;2023-05-21T15:29:26;10.88;;;7.43;;
49910;SDS011;35803;53.096;5.844;2023-05-21T15:32:10;10.65;;;6.82;;
49910;SDS011;35803;53.096;5.844;2023-05-21T15:34:56;12.73;;;7.13;;
49910;SDS011;35803;53.096;5.844;2023-05-21T15:37:41;11.35;;;7.43;;
49910;SDS011;35803;53.096;5.844;2023-05-21T15:40:26;15.45;;;8.70;;
49910;SDS011;35803;53.096;5.844;2023-05-21T15:43:10;12.13;;;7.95;;
49910;SDS011;35803;53.096;5.844;2023-05-21T15:45:54;14.63;;;7.28;;
49910;SDS011;35803;53.096;5.844;2023-05-21T15:48:38;10.48;;;6.95;;
49910;SDS011;35803;53.096;5.844;2023-05-21T15:51:22;13.73;;;7.40;;
49910;SDS011;35803;53.096;5.844;2023-05-21T15:54:06;10.43;;;6.82;;
49910;SDS011;35803;53.096;5.844;2023-05-21T15:56:50;9.35;;;6.78;;
49910;SDS011;35803;53.096;5.844;2023-05-21T15:59:34;9.43;;;6.65;;
49910;SDS011;35803;53.096;5.844;2023-05-21T16:02:18;12.02;;;6.93;;
49910;SDS011;35803;53.096;5.844;2023-05-21T16:05:02;10.85;;;6.88;;
49910;SDS011;35803;53.096;5.844;2023-05-21T16:07:52;12.55;;;6.57;;
49910;SDS011;35803;53.096;5.844;2023-05-21T16:10:37;11.00;;;7.30;;
49910;SDS011;35803;53.096;5.844;2023-05-21T16:13:22;12.45;;;6.93;;
49910;SDS011;35803;53.096;5.844;2023-05-21T16:16:06;12.38;;;6.93;;
49910;SDS011;35803;53.096;5.844;2023-05-21T16:18:53;12.75;;;7.03;;
49910;SDS011;35803;53.096;5.844;2023-05-21T16:21:37;9.98;;;6.68;;
49910;SDS011;35803;53.096;5.844;2023-05-21T16:24:21;12.80;;;7.40;;
49910;SDS011;35803;53.096;5.844;2023-05-21T16:27:08;10.75;;;6.72;;
49910;SDS011;35803;53.096;5.844;2023-05-21T16:29:53;13.93;;;7.20;;
49910;SDS011;35803;53.096;5.844;2023-05-21T16:32:38;10.77;;;6.85;;
49910;SDS011;35803;53.096;5.844;2023-05-21T16:35:29;13.18;;;7.63;;
49910;SDS011;35803;53.096;5.844;2023-05-21T16:38:15;12.05;;;7.30;;
49910;SDS011;35803;53.096;5.844;2023-05-21T16:40:59;10.40;;;7.07;;
49910;SDS011;35803;53.096;5.844;2023-05-21T16:43:43;13.27;;;7.47;;
49910;SDS011;35803;53.096;5.844;2023-05-21T16:46:28;12.68;;;7.20;;
49910;SDS011;35803;53.096;5.844;2023-05-21T16:49:12;12.30;;;7.20;;
49910;SDS011;35803;53.096;5.844;2023-05-21T16:51:56;11.27;;;7.15;;
49910;SDS011;35803;53.096;5.844;2023-05-21T16:54:40;12.98;;;7.40;;